Time;durP1;ratioP1;P1;durP2;ratioP2;P2;SDS_P1;SDS_P2;PMS_P1;PMS_P2;Temp;Humidity;BMP_temperature;BMP_pressure;BME280_temperature;BME280_humidity;BME280_pressure;Samples;Min_cycle;Max_cycle;Signal;HPM_P1;HPM_P2
2022/01/23 00:00:07;;;;;;;10.07;7.87;;;;;;;;;;5077530;28;20649;-83
2022/01/23 00:02:35;;;;;;;9.93;7.87;;;;;;;;;;5076226;28;20264;-84
2022/01/23 00:05:07;;;;;;;9.10;7.33;;;;;;;;;;5077651;28;20267;-83
2022/01/23 00:07:34;;;;;;;9.73;7.90;;;;;;;;;;5077389;28;20254;-82
2022/01/23 00:10:02;;;;;;;9.33;7.33;;;;;;;;;;5078534;28;20205;-83
2022/01/23 00:12:33;;;;;;;11.00;8.27;;;;;;;;;;5085451;28;20192;-83
2022/01/23 00:17:45;;;;;;;9.63;7.70;;;;;;;;;;5073097;28;20192;-84
2022/01/23 00:20:14;;;;;;;10.47;7.57;;;;;;;;;;5077662;28;20196;-84
2022/01/23 00:22:44;;;;;;;10.83;8.43;;;;;;;;;;5084649;28;20192;-84
2022/01/23 00:30:44;;;;;;;11.80;9.20;;;;;;;;;;5071471;28;20315;-83
2022/01/23 00:33:13;;;;;;;14.37;10.70;;;;;;;;;;5077671;28;20228;-84
2022/01/23 00:35:43;;;;;;;11.37;8.67;;;;;;;;;;5077978;28;20263;-83
2022/01/23 00:38:11;;;;;;;11.30;8.23;;;;;;;;;;5076391;28;20240;-83
2022/01/23 00:40:39;;;;;;;10.67;8.20;;;;;;;;;;5078550;28;20301;-84
2022/01/23 00:43:14;;;;;;;10.43;8.17;;;;;;;;;;5079492;28;20617;-83
2022/01/23 00:45:45;;;;;;;10.60;8.00;;;;;;;;;;5083000;28;20227;-84
2022/01/23 00:48:13;;;;;;;11.70;8.70;;;;;;;;;;5078967;28;20204;-84
2022/01/23 00:50:43;;;;;;;10.00;7.93;;;;;;;;;;5079062;28;20200;-84
2022/01/23 00:53:11;;;;;;;9.60;8.23;;;;;;;;;;5084427;28;20239;-83
2022/01/23 00:55:39;;;;;;;11.40;8.97;;;;;;;;;;5092027;28;20251;-84
2022/01/23 00:58:07;;;;;;;17.13;11.20;;;;;;;;;;5088941;28;20223;-83
2022/01/23 01:00:34;;;;;;;12.40;9.40;;;;;;;;;;5076796;28;20258;-83
2022/01/23 01:03:02;;;;;;;11.93;8.73;;;;;;;;;;5077131;28;20662;-84
2022/01/23 01:05:29;;;;;;;11.73;9.27;;;;;;;;;;5100625;22;20228;-83
2022/01/23 01:08:00;;;;;;;12.83;9.40;;;;;;;;;;5071871;28;20197;-84
2022/01/23 01:10:34;;;;;;;11.47;8.27;;;;;;;;;;5069360;28;20239;-82
2022/01/23 01:13:02;;;;;;;10.43;8.60;;;;;;;;;;5075440;28;20294;-84
2022/01/23 01:32:03;;;;;;;11.60;8.47;;;;;;;;;;5065848;28;20219;-83
2022/01/23 01:34:37;;;;;;;13.23;9.67;;;;;;;;;;5067085;28;20220;-83
2022/01/23 01:37:05;;;;;;;13.87;9.67;;;;;;;;;;5045802;28;20224;-83
2022/01/23 01:39:33;;;;;;;11.40;8.87;;;;;;;;;;5058874;28;20204;-83
2022/01/23 01:42:01;;;;;;;11.43;9.23;;;;;;;;;;5059722;28;20263;-83
2022/01/23 01:44:28;;;;;;;12.03;8.93;;;;;;;;;;5052491;28;20225;-83
2022/01/23 01:46:55;;;;;;;12.13;10.00;;;;;;;;;;5061840;28;20295;-83
2022/01/23 01:49:28;;;;;;;11.80;9.20;;;;;;;;;;5058830;28;20264;-83
2022/01/23 01:51:55;;;;;;;11.23;9.43;;;;;;;;;;5072215;28;20258;-83
2022/01/23 01:54:25;;;;;;;12.20;9.27;;;;;;;;;;5064755;28;20217;-83
2022/01/23 01:57:04;;;;;;;11.50;8.90;;;;;;;;;;5064246;28;20292;-82
2022/01/23 01:59:48;;;;;;;12.30;9.43;;;;;;;;;;5053598;28;20204;-83
2022/01/23 02:10:32;;;;;;;11.70;9.17;;;;;;;;;;5054549;28;20220;-83
2022/01/23 02:13:10;;;;;;;13.30;9.47;;;;;;;;;;5064969;28;20229;-83
2022/01/23 02:24:22;;;;;;;11.43;9.80;;;;;;;;;;5072166;28;20200;-83
2022/01/23 02:51:48;;;;;;;11.63;10.13;;;;;;;;;;5055767;28;20208;-83
2022/01/23 02:54:28;;;;;;;12.70;10.37;;;;;;;;;;5050203;28;20212;-83
2022/01/23 02:57:00;;;;;;;14.13;10.63;;;;;;;;;;5056161;28;20235;-83
2022/01/23 02:59:30;;;;;;;12.70;9.77;;;;;;;;;;5057916;28;20209;-84
2022/01/23 03:02:08;;;;;;;11.37;9.43;;;;;;;;;;5076059;28;20216;-83
2022/01/23 03:04:38;;;;;;;12.47;10.43;;;;;;;;;;5060160;28;20235;-81
2022/01/23 03:07:16;;;;;;;13.73;10.17;;;;;;;;;;5076845;28;20219;-84
2022/01/23 03:09:59;;;;;;;12.90;10.20;;;;;;;;;;5053713;28;20206;-84
2022/01/23 03:15:15;;;;;;;13.53;10.73;;;;;;;;;;5031134;28;20236;-84
2022/01/23 03:26:25;;;;;;;14.87;10.73;;;;;;;;;;5059704;28;20258;-83
2022/01/23 03:29:15;;;;;;;15.60;11.10;;;;;;;;;;5066507;28;20223;-84
2022/01/23 03:31:44;;;;;;;13.17;10.50;;;;;;;;;;5065528;28;20201;-84
2022/01/23 03:34:11;;;;;;;13.63;10.80;;;;;;;;;;5053604;28;20228;-86
2022/01/23 03:36:39;;;;;;;12.77;10.23;;;;;;;;;;5057941;28;20225;-81
2022/01/23 03:39:09;;;;;;;12.67;10.37;;;;;;;;;;5066012;28;20211;-83
2022/01/23 03:41:38;;;;;;;13.33;10.60;;;;;;;;;;5070546;28;20300;-83
2022/01/23 03:44:08;;;;;;;13.97;10.40;;;;;;;;;;5059672;28;20284;-84
2022/01/23 03:46:47;;;;;;;14.47;10.97;;;;;;;;;;5064662;28;20247;-85
2022/01/23 03:49:31;;;;;;;13.80;10.10;;;;;;;;;;5063441;28;20212;-84
2022/01/23 03:51:59;;;;;;;14.03;9.97;;;;;;;;;;5062253;28;20211;-84
2022/01/23 03:54:27;;;;;;;14.20;10.90;;;;;;;;;;5064453;28;20221;-84
2022/01/23 03:56:57;;;;;;;13.00;10.70;;;;;;;;;;5059674;28;20201;-83
2022/01/23 03:59:24;;;;;;;14.27;11.40;;;;;;;;;;5059080;28;20215;-84
2022/01/23 04:01:51;;;;;;;13.73;11.03;;;;;;;;;;5076763;28;20201;-81
2022/01/23 04:04:36;;;;;;;14.00;10.70;;;;;;;;;;5058959;28;20204;-85
2022/01/23 04:07:04;;;;;;;13.60;10.10;;;;;;;;;;5053024;28;20189;-86
2022/01/23 04:09:31;;;;;;;14.60;11.43;;;;;;;;;;5064040;28;20201;-83
2022/01/23 04:12:01;;;;;;;14.93;11.27;;;;;;;;;;5071622;28;20200;-86
2022/01/23 04:14:29;;;;;;;14.10;10.83;;;;;;;;;;5055408;28;20227;-83
2022/01/23 04:19:57;;;;;;;14.03;10.27;;;;;;;;;;5071441;28;20204;-84
2022/01/23 04:33:47;;;;;;;13.50;10.07;;;;;;;;;;5023722;28;20205;-83
2022/01/23 05:01:01;;;;;;;14.97;11.03;;;;;;;;;;5066942;28;20235;-84
2022/01/23 05:06:22;;;;;;;13.97;10.17;;;;;;;;;;5061886;28;20270;-83
2022/01/23 05:08:49;;;;;;;13.27;10.30;;;;;;;;;;5055971;28;20205;-84
2022/01/23 05:11:16;;;;;;;13.80;11.10;;;;;;;;;;5069050;28;20245;-87
2022/01/23 05:13:44;;;;;;;12.80;9.77;;;;;;;;;;5064292;28;20205;-86
2022/01/23 05:16:13;;;;;;;14.90;10.60;;;;;;;;;;5054877;28;20225;-83
2022/01/23 05:18:41;;;;;;;14.53;11.07;;;;;;;;;;5060589;28;20201;-83
2022/01/23 05:21:24;;;;;;;14.93;11.87;;;;;;;;;;5059367;28;20240;-85
2022/01/23 05:23:52;;;;;;;13.80;10.27;;;;;;;;;;5063939;28;20228;-86
2022/01/23 05:26:19;;;;;;;14.43;11.07;;;;;;;;;;5060077;28;20264;-84
2022/01/23 05:28:46;;;;;;;13.80;10.80;;;;;;;;;;5062244;28;20208;-84
2022/01/23 05:31:15;;;;;;;13.87;10.87;;;;;;;;;;5076684;28;20208;-80
2022/01/23 05:33:42;;;;;;;15.43;11.57;;;;;;;;;;5062641;28;20258;-85
2022/01/23 05:36:10;;;;;;;17.87;12.57;;;;;;;;;;5069922;28;20224;-83
2022/01/23 05:38:37;;;;;;;13.90;10.60;;;;;;;;;;5061069;28;20204;-83
2022/01/23 05:41:04;;;;;;;15.60;12.07;;;;;;;;;;5061276;28;20231;-84
2022/01/23 05:43:31;;;;;;;14.90;11.30;;;;;;;;;;5072154;28;20196;-84
2022/01/23 05:45:58;;;;;;;16.90;12.10;;;;;;;;;;5080022;28;20231;-84
2022/01/23 05:48:27;;;;;;;16.03;11.90;;;;;;;;;;5060075;28;20273;-84
2022/01/23 05:50:54;;;;;;;16.00;11.60;;;;;;;;;;5062457;28;20228;-84
2022/01/23 05:53:22;;;;;;;15.47;11.30;;;;;;;;;;5069645;28;20204;-84
2022/01/23 05:55:49;;;;;;;15.37;11.30;;;;;;;;;;5064300;28;20320;-84
2022/01/23 05:58:16;;;;;;;14.13;10.97;;;;;;;;;;5054342;28;20216;-84
2022/01/23 06:00:43;;;;;;;16.83;11.53;;;;;;;;;;5057529;28;20221;-83
2022/01/23 06:03:11;;;;;;;15.30;11.60;;;;;;;;;;5053106;28;20244;-84
2022/01/23 06:05:39;;;;;;;14.73;11.07;;;;;;;;;;5056683;28;20278;-84
2022/01/23 06:08:07;;;;;;;16.80;11.50;;;;;;;;;;5057230;28;20615;-84
2022/01/23 06:10:46;;;;;;;15.03;11.43;;;;;;;;;;5058023;28;20304;-84
2022/01/23 06:13:14;;;;;;;13.93;11.17;;;;;;;;;;5064680;28;20230;-84
2022/01/23 06:15:41;;;;;;;14.30;11.00;;;;;;;;;;5077721;28;20225;-84
2022/01/23 06:18:08;;;;;;;14.50;10.50;;;;;;;;;;5070143;28;20193;-84
2022/01/23 06:20:36;;;;;;;14.47;10.80;;;;;;;;;;5066721;28;20235;-86
2022/01/23 06:23:04;;;;;;;15.57;11.13;;;;;;;;;;5081215;28;20217;-84
2022/01/23 06:25:35;;;;;;;14.13;11.03;;;;;;;;;;5078460;28;20303;-83
2022/01/23 06:28:02;;;;;;;14.20;10.97;;;;;;;;;;5074823;28;20231;-83
2022/01/23 06:30:29;;;;;;;16.50;12.10;;;;;;;;;;5064338;28;20251;-84
2022/01/23 06:32:56;;;;;;;16.83;12.03;;;;;;;;;;5066886;28;20250;-83
2022/01/23 06:35:24;;;;;;;15.83;11.00;;;;;;;;;;5068044;28;20327;-84
2022/01/23 06:37:51;;;;;;;16.53;11.93;;;;;;;;;;5091187;28;20213;-86
2022/01/23 06:40:20;;;;;;;14.77;10.73;;;;;;;;;;5087120;28;20208;-87
2022/01/23 06:42:47;;;;;;;17.47;11.77;;;;;;;;;;5086299;28;20265;-86
2022/01/23 06:45:15;;;;;;;15.87;12.00;;;;;;;;;;5070953;28;20220;-84
2022/01/23 06:47:42;;;;;;;15.03;11.73;;;;;;;;;;5079535;28;20220;-82
2022/01/23 06:50:10;;;;;;;16.33;12.00;;;;;;;;;;5079613;28;20204;-84
2022/01/23 06:52:37;;;;;;;16.43;12.17;;;;;;;;;;5070789;28;20291;-84
2022/01/23 06:55:04;;;;;;;17.10;12.53;;;;;;;;;;5075743;28;20278;-84
2022/01/23 06:57:33;;;;;;;14.87;11.37;;;;;;;;;;5078865;28;20225;-84
2022/01/23 07:00:00;;;;;;;16.30;12.33;;;;;;;;;;5069190;28;20228;-84
2022/01/23 07:02:28;;;;;;;18.10;13.83;;;;;;;;;;5069783;28;20205;-80
2022/01/23 07:07:50;;;;;;;19.83;13.67;;;;;;;;;;5047769;28;20241;-90
2022/01/23 07:10:19;;;;;;;18.03;12.63;;;;;;;;;;5049360;28;20259;-91
2022/01/23 07:12:48;;;;;;;17.20;13.60;;;;;;;;;;5055378;28;20213;-91
2022/01/23 07:15:18;;;;;;;17.43;13.50;;;;;;;;;;5055648;28;20256;-91
2022/01/23 07:17:52;;;;;;;19.53;14.03;;;;;;;;;;5053613;28;20209;-91
2022/01/23 07:20:22;;;;;;;17.03;13.10;;;;;;;;;;5052076;28;20213;-91
2022/01/23 07:22:50;;;;;;;18.13;14.30;;;;;;;;;;5058584;28;20199;-91
2022/01/23 07:25:17;;;;;;;18.20;13.80;;;;;;;;;;5054714;28;20212;-91
2022/01/23 07:27:50;;;;;;;20.33;14.53;;;;;;;;;;5053108;28;20224;-91
2022/01/23 07:39:30;;;;;;;17.87;13.27;;;;;;;;;;5740234;22;20236;-88
2022/01/23 07:42:00;;;;;;;18.50;13.90;;;;;;;;;;5053265;28;20284;-89
2022/01/23 07:44:27;;;;;;;15.80;12.80;;;;;;;;;;5046673;28;20197;-89
2022/01/23 07:46:54;;;;;;;18.30;13.40;;;;;;;;;;5040734;28;20309;-88
2022/01/23 07:49:23;;;;;;;19.73;14.47;;;;;;;;;;5041401;28;20194;-90
2022/01/23 07:51:51;;;;;;;21.10;15.20;;;;;;;;;;5039809;28;20205;-89
2022/01/23 07:54:22;;;;;;;19.17;14.77;;;;;;;;;;5038434;28;20206;-89
2022/01/23 07:56:57;;;;;;;21.03;15.37;;;;;;;;;;5040332;28;20315;-89
2022/01/23 07:59:34;;;;;;;20.63;15.10;;;;;;;;;;5039927;28;20205;-90
2022/01/23 08:02:03;;;;;;;19.53;14.93;;;;;;;;;;5035058;28;20198;-89
2022/01/23 08:04:30;;;;;;;21.63;15.97;;;;;;;;;;5032220;28;20194;-90
2022/01/23 08:07:10;;;;;;;20.00;14.90;;;;;;;;;;5033931;28;20283;-90
2022/01/23 08:12:46;;;;;;;16.50;12.07;;;;;;;;;;4994116;28;20259;-90
2022/01/23 08:15:14;;;;;;;17.73;12.63;;;;;;;;;;4990073;28;20230;-90
2022/01/23 08:17:42;;;;;;;17.63;12.73;;;;;;;;;;4994520;28;20227;-89
2022/01/23 08:20:10;;;;;;;17.80;13.53;;;;;;;;;;5000488;28;20271;-89
2022/01/23 08:22:40;;;;;;;17.73;13.10;;;;;;;;;;4991023;28;20207;-89
2022/01/23 08:25:08;;;;;;;16.73;12.60;;;;;;;;;;4990507;28;20283;-89
2022/01/23 08:27:38;;;;;;;19.40;13.90;;;;;;;;;;4998621;28;20202;-90
2022/01/23 08:30:12;;;;;;;19.57;14.50;;;;;;;;;;5008954;28;20203;-85
2022/01/23 08:32:42;;;;;;;17.80;13.83;;;;;;;;;;5003355;28;20233;-90
2022/01/23 08:35:10;;;;;;;17.97;14.10;;;;;;;;;;5005258;28;20228;-89
2022/01/23 08:37:42;;;;;;;21.07;15.27;;;;;;;;;;4987179;28;20208;-88
2022/01/23 08:40:18;;;;;;;20.13;14.70;;;;;;;;;;4983557;28;20203;-88
2022/01/23 08:43:00;;;;;;;19.90;14.90;;;;;;;;;;4992689;28;20211;-87
2022/01/23 08:45:38;;;;;;;19.30;15.47;;;;;;;;;;4992783;28;20224;-88
2022/01/23 08:48:11;;;;;;;20.80;15.27;;;;;;;;;;5006018;28;20211;-89
2022/01/23 08:50:43;;;;;;;22.83;16.10;;;;;;;;;;5051372;28;20207;-89
2022/01/23 08:53:18;;;;;;;23.30;16.30;;;;;;;;;;5045142;28;20223;-89
2022/01/23 08:55:46;;;;;;;21.13;16.17;;;;;;;;;;5039923;28;20305;-89
2022/01/23 08:58:14;;;;;;;21.17;15.97;;;;;;;;;;5039779;28;20206;-87
2022/01/23 09:00:42;;;;;;;19.57;14.77;;;;;;;;;;5041815;28;20213;-85
2022/01/23 09:05:55;;;;;;;21.60;15.63;;;;;;;;;;5020666;28;20253;-88
2022/01/23 09:08:25;;;;;;;21.30;15.53;;;;;;;;;;5030293;28;20217;-89
2022/01/23 09:10:55;;;;;;;18.10;14.60;;;;;;;;;;5041955;28;20234;-89
2022/01/23 09:13:33;;;;;;;21.57;15.27;;;;;;;;;;5037460;28;20269;-88
2022/01/23 09:16:05;;;;;;;22.97;16.37;;;;;;;;;;5037964;28;20244;-89
2022/01/23 09:18:32;;;;;;;20.57;15.53;;;;;;;;;;5051666;28;20240;-89
2022/01/23 09:21:02;;;;;;;20.30;16.43;;;;;;;;;;5048795;28;20202;-90
2022/01/23 09:23:50;;;;;;;20.33;16.07;;;;;;;;;;5038902;28;20307;-88
2022/01/23 09:29:14;;;;;;;18.90;15.33;;;;;;;;;;5029059;28;20198;-88
2022/01/23 09:31:49;;;;;;;17.27;14.70;;;;;;;;;;5027679;28;20210;-87
2022/01/23 09:34:17;;;;;;;17.90;14.43;;;;;;;;;;5031601;28;20244;-87
2022/01/23 09:36:44;;;;;;;22.60;16.50;;;;;;;;;;5027804;28;20214;-87
2022/01/23 09:39:15;;;;;;;23.73;16.80;;;;;;;;;;5026267;28;20268;-88
2022/01/23 09:41:43;;;;;;;19.50;14.83;;;;;;;;;;5029311;28;20221;-89
2022/01/23 09:44:11;;;;;;;19.33;15.10;;;;;;;;;;5032359;28;20285;-88
2022/01/23 09:46:38;;;;;;;21.03;15.90;;;;;;;;;;5026449;28;20268;-88
2022/01/23 09:49:07;;;;;;;21.43;16.67;;;;;;;;;;5031938;28;20198;-88
2022/01/23 09:51:36;;;;;;;19.40;15.57;;;;;;;;;;5027521;28;20198;-91
2022/01/23 09:54:03;;;;;;;20.70;15.70;;;;;;;;;;5033819;28;20206;-91
2022/01/23 09:56:33;;;;;;;18.47;15.10;;;;;;;;;;5032084;28;20275;-91
2022/01/23 09:59:01;;;;;;;19.47;14.87;;;;;;;;;;5030602;28;20197;-89
2022/01/23 10:01:29;;;;;;;17.73;15.07;;;;;;;;;;5026933;28;20664;-89
2022/01/23 10:03:56;;;;;;;17.00;13.23;;;;;;;;;;5026247;28;20644;-89
2022/01/23 10:06:25;;;;;;;19.07;15.27;;;;;;;;;;5031743;28;20221;-87
2022/01/23 10:08:54;;;;;;;17.47;15.03;;;;;;;;;;5027347;28;20193;-87
2022/01/23 10:11:21;;;;;;;18.27;14.67;;;;;;;;;;5029863;28;20217;-85
2022/01/23 10:13:50;;;;;;;18.13;15.60;;;;;;;;;;5033353;28;20209;-87
2022/01/23 10:16:17;;;;;;;18.50;15.10;;;;;;;;;;5029667;28;20272;-87
2022/01/23 10:18:45;;;;;;;17.70;14.33;;;;;;;;;;5034260;28;20210;-87
2022/01/23 10:21:13;;;;;;;19.53;16.37;;;;;;;;;;5031694;28;20209;-88
2022/01/23 10:23:41;;;;;;;16.37;13.50;;;;;;;;;;5027944;28;20202;-87
2022/01/23 10:26:09;;;;;;;18.57;14.33;;;;;;;;;;5028559;28;20225;-87
2022/01/23 10:28:38;;;;;;;19.57;15.10;;;;;;;;;;5029512;28;20194;-87
2022/01/23 10:31:07;;;;;;;15.80;13.87;;;;;;;;;;5031904;28;20209;-87
2022/01/23 10:33:35;;;;;;;17.77;14.53;;;;;;;;;;5028222;28;20209;-89
2022/01/23 10:36:05;;;;;;;18.83;15.30;;;;;;;;;;5025816;28;20218;-89
2022/01/23 11:27:08;;;;;;;16.63;13.17;;;;;;;;;;5012721;28;20244;-89
2022/01/23 11:29:36;;;;;;;14.60;12.33;;;;;;;;;;4968759;28;20300;-89
2022/01/23 11:32:29;;;;;;;14.10;11.83;;;;;;;;;;4973322;28;20697;-90
2022/01/23 11:37:53;;;;;;;14.87;11.57;;;;;;;;;;4876896;29;20257;-90
2022/01/23 11:50:39;;;;;;;17.40;13.47;;;;;;;;;;4878376;29;20211;-88
2022/01/23 12:03:13;;;;;;;10.40;8.97;;;;;;;;;;5067246;28;20216;-87
2022/01/23 12:09:22;;;;;;;12.20;8.87;;;;;;;;;;5060722;28;20651;-86
2022/01/23 12:12:34;;;;;;;10.63;9.33;;;;;;;;;;5065350;28;20224;-88
2022/01/23 12:21:13;;;;;;;9.40;8.37;;;;;;;;;;5030199;28;20210;-89
2022/01/23 12:24:02;;;;;;;10.20;8.77;;;;;;;;;;5043470;28;20289;-87
2022/01/23 12:26:52;;;;;;;9.37;7.83;;;;;;;;;;5042186;28;20232;-91
2022/01/23 12:29:26;;;;;;;9.07;8.00;;;;;;;;;;5064775;28;20228;-89
2022/01/23 12:32:12;;;;;;;9.50;8.47;;;;;;;;;;5046284;28;20201;-88
2022/01/23 12:38:39;;;;;;;7.53;6.83;;;;;;;;;;4929957;28;20228;-87
2022/01/23 12:47:38;;;;;;;9.33;8.00;;;;;;;;;;4998432;28;20255;-87
2022/01/23 12:50:34;;;;;;;9.17;7.00;;;;;;;;;;5034612;28;20209;-87
2022/01/23 12:53:23;;;;;;;5.63;5.03;;;;;;;;;;5037860;28;20256;-87
2022/01/23 12:56:11;;;;;;;5.67;5.03;;;;;;;;;;5034394;28;20283;-89
2022/01/23 12:59:31;;;;;;;5.93;5.30;;;;;;;;;;5038214;28;20209;-86
2022/01/23 13:08:23;;;;;;;5.93;5.37;;;;;;;;;;5026093;28;20217;-86
2022/01/23 13:30:08;;;;;;;3.07;2.63;;;;;;;;;;4971478;28;20200;-87
2022/01/23 13:32:46;;;;;;;4.67;4.17;;;;;;;;;;4972423;28;20204;-86
2022/01/23 13:38:15;;;;;;;4.70;3.50;;;;;;;;;;5111909;22;20289;-87
2022/01/23 13:40:43;;;;;;;3.93;3.40;;;;;;;;;;5067525;28;20208;-86
2022/01/23 13:52:10;;;;;;;7.90;3.93;;;;;;;;;;5062916;28;20200;-88
2022/01/23 13:57:56;;;;;;;3.90;3.40;;;;;;;;;;5063079;28;20216;-85
2022/01/23 14:00:26;;;;;;;4.70;3.73;;;;;;;;;;5066169;28;20196;-86
2022/01/23 14:02:59;;;;;;;5.23;4.30;;;;;;;;;;5063959;28;20225;-85
2022/01/23 14:05:32;;;;;;;4.23;3.80;;;;;;;;;;5063475;28;20201;-86
2022/01/23 14:08:03;;;;;;;4.17;3.50;;;;;;;;;;5073807;28;20204;-86
2022/01/23 14:10:32;;;;;;;4.10;3.70;;;;;;;;;;5073324;28;20755;-84
2022/01/23 14:13:06;;;;;;;4.23;3.83;;;;;;;;;;5079646;28;20265;-84
2022/01/23 14:15:44;;;;;;;4.17;3.77;;;;;;;;;;5069810;28;20226;-90
2022/01/23 14:18:24;;;;;;;10.50;6.80;;;;;;;;;;5072507;28;20224;-90
2022/01/23 14:21:28;;;;;;;9.57;6.10;;;;;;;;;;5070201;28;20322;-90
2022/01/23 14:27:17;;;;;;;7.80;5.83;;;;;;;;;;5063633;28;20227;-89
2022/01/23 14:29:50;;;;;;;5.67;4.07;;;;;;;;;;5071272;28;20208;-88
2022/01/23 14:32:29;;;;;;;7.93;4.10;;;;;;;;;;5074477;28;20212;-88
2022/01/23 14:35:06;;;;;;;5.57;3.20;;;;;;;;;;5074860;28;20204;-88
2022/01/23 14:37:33;;;;;;;7.70;4.00;;;;;;;;;;5073163;28;20228;-87
2022/01/23 14:40:11;;;;;;;8.37;5.60;;;;;;;;;;5071270;28;20205;-85
2022/01/23 14:42:44;;;;;;;5.83;4.30;;;;;;;;;;5071781;28;20242;-85
2022/01/23 14:45:11;;;;;;;3.80;3.33;;;;;;;;;;5076102;28;20197;-87
2022/01/23 14:47:42;;;;;;;8.57;4.43;;;;;;;;;;5075263;28;20224;-90
2022/01/23 14:50:11;;;;;;;5.33;3.67;;;;;;;;;;5075625;28;20215;-88
2022/01/23 14:52:40;;;;;;;5.10;4.60;;;;;;;;;;5081891;28;20271;-88
2022/01/23 14:58:06;;;;;;;4.07;3.63;;;;;;;;;;5083194;28;20216;-88
2022/01/23 15:00:34;;;;;;;3.97;3.67;;;;;;;;;;5079788;28;20205;-87
2022/01/23 15:03:02;;;;;;;3.87;3.40;;;;;;;;;;5080440;28;20204;-86
2022/01/23 15:05:33;;;;;;;4.23;3.43;;;;;;;;;;5072772;28;20204;-86
2022/01/23 15:08:05;;;;;;;4.73;3.87;;;;;;;;;;5078037;28;20201;-89
2022/01/23 15:10:52;;;;;;;4.23;3.50;;;;;;;;;;5077648;28;20296;-87
2022/01/23 15:13:36;;;;;;;4.53;3.27;;;;;;;;;;5077083;28;20200;-87
2022/01/23 15:16:09;;;;;;;3.83;3.10;;;;;;;;;;5076155;28;20285;-88
2022/01/23 15:18:36;;;;;;;5.40;3.60;;;;;;;;;;5070061;28;20237;-88
2022/01/23 15:21:17;;;;;;;4.07;3.70;;;;;;;;;;5070379;28;20203;-87
2022/01/23 15:26:52;;;;;;;4.57;3.67;;;;;;;;;;5058459;28;20654;-86
2022/01/23 15:29:27;;;;;;;3.60;3.30;;;;;;;;;;5081974;28;20216;-85
2022/01/23 15:35:16;;;;;;;5.13;4.17;;;;;;;;;;5065020;28;20208;-85
2022/01/23 15:40:51;;;;;;;5.63;3.67;;;;;;;;;;5069856;28;20274;-87
2022/01/23 15:43:18;;;;;;;3.90;3.40;;;;;;;;;;5075395;28;20196;-88
2022/01/23 15:45:45;;;;;;;4.47;3.13;;;;;;;;;;5086898;28;20215;-89
2022/01/23 15:48:13;;;;;;;3.90;3.50;;;;;;;;;;5081013;28;20204;-90
2022/01/23 15:50:48;;;;;;;3.60;3.30;;;;;;;;;;5076444;28;20208;-88
2022/01/23 15:53:17;;;;;;;4.30;2.87;;;;;;;;;;5080544;28;20228;-90
2022/01/23 15:56:01;;;;;;;3.10;2.80;;;;;;;;;;5074570;28;20291;-91
2022/01/23 15:58:50;;;;;;;4.27;3.43;;;;;;;;;;5080727;28;20227;-88
2022/01/23 16:04:46;;;;;;;3.53;2.90;;;;;;;;;;5064374;28;20696;-89
2022/01/23 16:07:16;;;;;;;3.40;2.70;;;;;;;;;;5061830;28;20295;-89
2022/01/23 16:10:05;;;;;;;4.40;3.43;;;;;;;;;;5080838;28;20208;-86
2022/01/23 16:12:47;;;;;;;4.50;3.57;;;;;;;;;;5080548;28;20208;-90
2022/01/23 16:15:35;;;;;;;3.17;2.87;;;;;;;;;;5066893;28;20197;-89
2022/01/23 16:36:37;;;;;;;2.97;2.67;;;;;;;;;;5001162;28;20238;-92
2022/01/23 16:39:44;;;;;;;4.87;2.97;;;;;;;;;;5012928;28;20222;-88
2022/01/23 16:42:33;;;;;;;3.60;3.27;;;;;;;;;;5014451;28;20210;-90
2022/01/23 16:49:12;;;;;;;;;;;;;;;;;;;;;
2022/01/23 16:52:27;;;;;;;;;;;;;;;;;;;;;
2022/01/23 17:11:06;;;;;;;4.83;3.20;;;;;;;;;;5052618;28;20237;-86
2022/01/23 17:16:22;;;;;;;4.67;3.30;;;;;;;;;;5044770;28;20220;-85
2022/01/23 17:21:31;;;;;;;4.43;3.60;;;;;;;;;;5055151;28;20189;-87
2022/01/23 17:24:00;;;;;;;3.70;3.33;;;;;;;;;;5053094;28;20217;-89
2022/01/23 17:26:34;;;;;;;4.23;3.40;;;;;;;;;;5055208;28;20221;-88
2022/01/23 17:29:01;;;;;;;6.67;4.63;;;;;;;;;;5056074;28;20205;-85
2022/01/23 17:31:38;;;;;;;9.10;6.90;;;;;;;;;;5047485;28;20220;-86
2022/01/23 17:34:05;;;;;;;5.10;4.60;;;;;;;;;;5045788;28;20209;-87
2022/01/23 17:36:32;;;;;;;4.57;4.07;;;;;;;;;;5048902;28;20225;-89
2022/01/23 17:39:00;;;;;;;3.40;3.10;;;;;;;;;;5045228;28;20296;-88
2022/01/23 17:41:27;;;;;;;3.40;3.10;;;;;;;;;;5047472;28;20201;-86
2022/01/23 17:43:56;;;;;;;4.43;3.80;;;;;;;;;;5052743;28;20197;-87
2022/01/23 17:46:26;;;;;;;4.97;3.40;;;;;;;;;;5046612;28;20225;-87
2022/01/23 17:49:04;;;;;;;3.90;3.50;;;;;;;;;;5050237;28;20201;-86
2022/01/23 17:51:32;;;;;;;6.13;3.90;;;;;;;;;;5052998;28;20205;-88
2022/01/23 17:54:00;;;;;;;4.37;3.50;;;;;;;;;;5052728;28;20274;-86
2022/01/23 17:56:28;;;;;;;4.30;3.87;;;;;;;;;;5053149;28;20260;-88
2022/01/23 17:59:01;;;;;;;4.00;3.47;;;;;;;;;;5052890;28;20236;-88
2022/01/23 18:01:28;;;;;;;4.23;3.83;;;;;;;;;;5055492;28;20209;-87
2022/01/23 18:03:56;;;;;;;3.93;3.53;;;;;;;;;;5057894;28;20209;-88
2022/01/23 18:06:24;;;;;;;4.07;3.67;;;;;;;;;;5060569;28;20311;-86
2022/01/23 18:08:52;;;;;;;4.70;4.20;;;;;;;;;;5060718;28;20213;-88
2022/01/23 18:11:19;;;;;;;3.47;3.17;;;;;;;;;;5063557;28;20243;-88
2022/01/23 18:13:56;;;;;;;5.17;4.00;;;;;;;;;;5067275;28;20202;-90
2022/01/23 18:16:26;;;;;;;4.20;3.80;;;;;;;;;;5072548;28;20228;-88
2022/01/23 18:18:54;;;;;;;4.30;3.50;;;;;;;;;;5073710;28;20232;-91
2022/01/23 18:21:23;;;;;;;3.80;3.40;;;;;;;;;;5071080;28;20197;-88
2022/01/23 18:23:52;;;;;;;4.17;3.77;;;;;;;;;;5072704;28;20201;-85
2022/01/23 18:26:19;;;;;;;4.30;3.57;;;;;;;;;;5066812;28;20223;-84
2022/01/23 18:29:08;;;;;;;4.77;3.80;;;;;;;;;;5073605;28;20200;-86
2022/01/23 18:31:44;;;;;;;4.23;3.60;;;;;;;;;;5070555;28;20225;-88
2022/01/23 18:34:17;;;;;;;3.90;3.57;;;;;;;;;;5060333;28;20215;-89
2022/01/23 18:36:49;;;;;;;4.67;3.70;;;;;;;;;;5052910;28;20264;-87
2022/01/23 18:39:27;;;;;;;4.80;4.13;;;;;;;;;;5053877;28;20312;-89
2022/01/23 18:42:17;;;;;;;4.53;4.10;;;;;;;;;;5046465;28;20196;-88
2022/01/23 18:47:34;;;;;;;4.37;3.97;;;;;;;;;;5042932;28;20240;-87
2022/01/23 18:50:01;;;;;;;4.30;3.90;;;;;;;;;;5052712;28;20243;-87
2022/01/23 18:52:34;;;;;;;4.70;3.67;;;;;;;;;;5052746;28;20217;-86
2022/01/23 18:55:06;;;;;;;5.23;3.90;;;;;;;;;;5054842;28;20296;-87
2022/01/23 18:57:39;;;;;;;4.23;3.83;;;;;;;;;;5055721;28;20223;-87
2022/01/23 19:00:17;;;;;;;4.43;3.73;;;;;;;;;;5073474;28;20219;-88
2022/01/23 20:55:40;;;;;;;5.90;4.63;;;;;;;;;;5043600;28;20207;-89
2022/01/23 21:01:13;;;;;;;5.80;4.87;;;;;;;;;;5049130;28;20283;-90
2022/01/23 21:04:00;;;;;;;5.00;4.50;;;;;;;;;;5061690;28;20288;-90
2022/01/23 21:06:32;;;;;;;6.33;4.87;;;;;;;;;;5051925;28;20235;-89
2022/01/23 21:09:14;;;;;;;;;;;;;;;;;;;;;
2022/01/23 21:11:58;;;;;;;5.57;4.70;;;;;;;;;;5057624;28;20658;-90
2022/01/23 21:14:42;;;;;;;6.17;5.27;;;;;;;;;;5053665;28;20311;-89
2022/01/23 21:20:31;;;;;;;5.70;5.17;;;;;;;;;;5043333;28;20225;-91
2022/01/23 21:40:19;;;;;;;5.53;5.03;;;;;;;;;;5052819;28;20259;-89
2022/01/23 21:42:47;;;;;;;5.93;5.17;;;;;;;;;;5055006;28;20601;-89
2022/01/23 21:45:16;;;;;;;5.77;5.00;;;;;;;;;;5053641;28;20205;-90
2022/01/23 21:47:49;;;;;;;5.90;5.30;;;;;;;;;;5053827;28;20221;-89
2022/01/23 21:50:24;;;;;;;7.20;5.63;;;;;;;;;;5059572;28;20209;-90
2022/01/23 21:52:57;;;;;;;5.80;5.20;;;;;;;;;;5053572;28;20288;-90
2022/01/23 21:55:24;;;;;;;5.90;5.30;;;;;;;;;;5054912;28;20209;-90
2022/01/23 21:57:52;;;;;;;7.30;5.60;;;;;;;;;;5052893;28;20724;-89
2022/01/23 22:00:24;;;;;;;6.30;5.20;;;;;;;;;;5053974;28;20205;-90
2022/01/23 22:02:52;;;;;;;6.00;5.10;;;;;;;;;;5054269;28;20204;-90
2022/01/23 22:05:22;;;;;;;6.00;5.40;;;;;;;;;;5055657;28;20205;-90
2022/01/23 22:07:49;;;;;;;6.57;5.50;;;;;;;;;;5061744;28;20221;-89
2022/01/23 22:10:31;;;;;;;7.10;5.70;;;;;;;;;;5052244;28;20278;-89
2022/01/23 22:13:11;;;;;;;6.30;5.30;;;;;;;;;;5064596;28;20200;-90
2022/01/23 22:16:00;;;;;;;6.60;5.90;;;;;;;;;;5071437;28;20224;-89
2022/01/23 22:18:33;;;;;;;6.67;5.37;;;;;;;;;;5053516;28;20239;-89
2022/01/23 22:21:11;;;;;;;8.23;5.67;;;;;;;;;;5053499;28;20255;-89
2022/01/23 22:29:11;;;;;;;6.47;5.73;;;;;;;;;;5053561;28;20199;-89
2022/01/23 22:31:41;;;;;;;6.97;5.97;;;;;;;;;;5052016;28;20292;-89
2022/01/23 22:34:17;;;;;;;6.97;5.77;;;;;;;;;;5058752;28;20205;-91
2022/01/23 22:36:44;;;;;;;8.57;6.67;;;;;;;;;;5055167;28;20228;-89
2022/01/23 22:39:12;;;;;;;6.40;5.13;;;;;;;;;;5051240;28;20603;-90
2022/01/23 22:41:39;;;;;;;6.83;5.47;;;;;;;;;;5052411;28;20212;-89
2022/01/23 22:44:13;;;;;;;7.33;5.77;;;;;;;;;;5061024;28;20215;-89
2022/01/23 22:46:42;;;;;;;6.37;5.53;;;;;;;;;;5052149;28;20236;-90
2022/01/23 22:49:11;;;;;;;6.27;5.60;;;;;;;;;;5052100;28;20209;-90
2022/01/23 22:51:39;;;;;;;6.67;5.97;;;;;;;;;;5051573;28;20213;-90
2022/01/23 22:54:07;;;;;;;6.60;5.23;;;;;;;;;;5051452;28;20209;-90
2022/01/23 22:56:35;;;;;;;6.97;5.37;;;;;;;;;;5051805;28;20229;-90
2022/01/23 22:59:02;;;;;;;6.27;5.67;;;;;;;;;;5051600;28;20225;-90
2022/01/23 23:01:30;;;;;;;6.83;5.90;;;;;;;;;;5052351;28;20236;-90